MV Melite — V7TM5 — position and weather

sailwx.info

Track history (hours):
 
Tides and Currents Weather Stations Pressure Air Temp Water Temp Dewpoint Dewpoint Depression Visibility Wind Speed Wind Dir Waves Ship Positions

MV Melite

Last reported at 2015-Mar-10 12:13 UTC. Time now 2015-Mar-31 11:24 UTC.
Position N 48°10' W 125°42'.
Warning: this ship's position is 20 days out of date.

Length 225 m; draft 14 m.

Type: Cargo ship. MMSI: 538003832.

Date/timePositionNaut miles runAvg speedWind from/ knotsBaromVisibWave heightAir tempDewpointWater temp
2015-Mar-10 12:13N 48°10' W 125°42'912.9
2015-Mar-10 11:33N 48°16' W 125°33'1312.7
2015-Mar-10 10:32N 48°25' W 125°19'1312.5
2015-Mar-10 09:32N 48°31' W 125°02'4113.8
2015-Mar-10 06:32N 48°18' W 124°02'1414.4
2015-Mar-10 05:32N 48°16' W 123°41'1010.6
2015-Mar-10 04:33N 48°20' W 123°26'9 8.6
2015-Mar-10 03:34N 48°24' W 123°15'1010.1
2015-Mar-10 02:33N 48°34' W 123°13'9 9.2
2015-Mar-10 01:34N 48°43' W 123°12'9 9.2
2015-Mar-10 00:33N 48°49' W 123°01'1110.8
2015-Mar-09 23:33N 48°59' W 123°09'2 2.2
2015-Mar-09 22:29N 49°01' W 123°09'0 0.0
2015-Mar-09 21:32N 49°01' W 123°09'0 0.0
2015-Mar-09 20:32N 49°01' W 123°09'0 0.0
2015-Mar-09 19:32N 49°01' W 123°09'0 0.0
2015-Mar-09 18:31N 49°01' W 123°09'0 0.0
2015-Mar-09 17:31N 49°01' W 123°09'0 0.0
2015-Mar-09 16:31N 49°01' W 123°09'0 0.0
2015-Mar-09 15:28N 49°01' W 123°09'0 0.0
2015-Mar-09 14:28N 49°01' W 123°09'0 0.0
2015-Mar-09 13:31N 49°01' W 123°09'0 0.0
2015-Mar-09 12:31N 49°01' W 123°09'0 0.0
2015-Mar-09 11:31N 49°01' W 123°09'0 0.0
2015-Mar-09 10:31N 49°01' W 123°09'0 0.0
2015-Mar-09 09:31N 49°01' W 123°09'0 0.0
2015-Mar-09 08:28N 49°01' W 123°09'0 0.0
2015-Mar-09 07:31N 49°01' W 123°09'0 0.0
2015-Mar-09 06:31N 49°01' W 123°09'0 0.0
2015-Mar-09 05:31N 49°01' W 123°09'0 0.0
2015-Mar-09 04:31N 49°01' W 123°09'0 0.0
2015-Mar-09 03:31N 49°01' W 123°09'0 0.0
2015-Mar-09 02:31N 49°01' W 123°09'0 0.0
2015-Mar-09 01:31N 49°01' W 123°09'0 0.0
2015-Mar-09 00:31N 49°01' W 123°09'0 0.0
2015-Mar-08 23:31N 49°01' W 123°09'0 0.0
2015-Mar-08 22:31N 49°01' W 123°09'0 0.0
2015-Mar-08 21:31N 49°01' W 123°09'0 0.0
2015-Mar-08 20:31N 49°01' W 123°09'0 0.0
2015-Mar-08 19:31N 49°01' W 123°09'0 0.0
2015-Mar-08 18:31N 49°01' W 123°09'0 0.0
2015-Mar-08 17:31N 49°01' W 123°09'0 0.0
2015-Mar-08 16:31N 49°01' W 123°09'0 0.0
2015-Mar-08 15:31N 49°01' W 123°09'0 0.0
2015-Mar-08 14:31N 49°01' W 123°09'0 0.0
2015-Mar-08 13:31N 49°01' W 123°09'0 0.0
2015-Mar-08 12:31N 49°01' W 123°09'0 0.0
2015-Mar-08 11:31N 49°01' W 123°09'0 0.0
2015-Mar-08 10:31N 49°01' W 123°09'0 0.0
2015-Mar-08 09:31N 49°01' W 123°09'0 0.0
2015-Mar-08 08:31N 49°01' W 123°09'0 0.0
2015-Mar-08 07:34N 49°01' W 123°09'0 0.0
2015-Mar-08 06:33N 49°01' W 123°09'0 0.0
2015-Mar-08 05:30N 49°01' W 123°09'0 0.0
2015-Mar-08 04:30N 49°01' W 123°09'0 0.0
2015-Mar-08 03:33N 49°01' W 123°09'0 0.0
2015-Mar-08 02:33N 49°01' W 123°09'0 0.0
2015-Mar-08 01:33N 49°01' W 123°09'0 0.0
2015-Mar-08 00:33N 49°01' W 123°09'0 0.0
2015-Mar-07 23:33N 49°01' W 123°09'0 0.0
2015-Mar-07 22:33N 49°01' W 123°09'1 0.9
2015-Mar-07 21:33N 49°00' W 123°10'8 7.6
2015-Mar-07 20:33N 48°54' W 123°03'9 9.2
2015-Mar-07 19:33N 48°45' W 123°05'1111.2
2015-Mar-07 18:33N 48°45' W 123°21'10 9.6
2015-Mar-07 17:32N 48°45' W 123°36'0 0.1
2015-Mar-07 15:30N 48°45' W 123°37'0 0.0
2015-Mar-07 14:30N 48°45' W 123°37'0 0.0
2015-Mar-07 12:06N 48°45' W 123°37'0 0.0
2015-Mar-07 11:18N 48°45' W 123°37'0 0.1
2015-Mar-07 10:30N 48°45' W 123°37'0 0.1
2015-Mar-07 09:12N 48°45' W 123°37'0 0.0
2015-Mar-07 08:18N 48°45' W 123°37'0 0.1
2015-Mar-07 07:18N 48°45' W 123°37'0 0.0
2015-Mar-07 06:12N 48°45' W 123°37'0 0.0
2015-Mar-07 05:12N 48°45' W 123°37'0 0.0
2015-Mar-07 04:24N 48°45' W 123°37'0 0.1
2015-Mar-07 03:24N 48°45' W 123°37'0 0.1
2015-Mar-07 02:06N 48°45' W 123°37'0 0.1
2015-Mar-07 01:06N 48°45' W 123°37'0 0.1
2015-Mar-07 00:30N 48°45' W 123°37'0 0.0
2015-Mar-06 23:30N 48°45' W 123°37'0 0.1
2015-Mar-06 21:24N 48°45' W 123°37'0 0.1
2015-Mar-06 19:12N 48°45' W 123°37'0 0.0
2015-Mar-06 18:18N 48°45' W 123°37'0 0.0
2015-Mar-06 17:06N 48°45' W 123°37'0 0.1
2015-Mar-06 16:24N 48°45' W 123°37'0 0.1
2015-Mar-06 15:30N 48°45' W 123°37'0 0.0
2015-Mar-06 14:11N 48°45' W 123°37'0 0.1
2015-Mar-06 13:29N 48°45' W 123°37'0 0.0
2015-Mar-06 10:29N 48°45' W 123°37'0 0.1
2015-Mar-06 09:29N 48°45' W 123°37'0 0.0
2015-Mar-06 08:05N 48°45' W 123°37'0 0.1
2015-Mar-06 07:29N 48°45' W 123°37'0 0.1
2015-Mar-06 06:20N 48°45' W 123°37'0 0.1
2015-Mar-06 05:29N 48°45' W 123°37'0 0.0
2015-Mar-06 04:05N 48°45' W 123°37'0 0.0
2015-Mar-05 20:11N 48°45' W 123°37'0 0.2
2015-Mar-05 19:23N 48°45' W 123°37'0 0.1
2015-Mar-05 18:29N 48°45' W 123°37'0 0.1
2015-Mar-05 17:05N 48°45' W 123°37'0 0.0
2015-Mar-05 15:29N 48°45' W 123°37'0 0.0
2015-Mar-05 13:29N 48°45' W 123°37'0 0.1
2015-Mar-05 12:23N 48°45' W 123°37'0 0.0
2015-Mar-05 11:17N 48°45' W 123°37'0 0.1
2015-Mar-05 10:05N 48°45' W 123°37'0 0.0
2015-Mar-05 09:29N 48°45' W 123°37'0 0.0
2015-Mar-05 08:23N 48°45' W 123°37'0 0.0
2015-Mar-05 07:17N 48°45' W 123°37'0 0.1
2015-Mar-05 06:23N 48°45' W 123°37'0 0.0
2015-Mar-05 05:05N 48°45' W 123°37'0 0.0
2015-Mar-05 04:29N 48°45' W 123°37'0 0.1
2015-Mar-05 02:16N 48°45' W 123°37'0 0.1
2015-Mar-05 00:22N 48°45' W 123°37'0 0.0
2015-Mar-04 23:28N 48°45' W 123°37'0 0.0
2015-Mar-04 22:22N 48°45' W 123°37'0 0.0
2015-Mar-04 21:16N 48°45' W 123°37'0 0.1
2015-Mar-04 19:28N 48°45' W 123°37'0 0.0
2015-Mar-04 18:28N 48°45' W 123°37'0 0.0
2015-Mar-04 17:28N 48°45' W 123°37'0 0.1
2015-Mar-04 16:28N 48°45' W 123°37'0 0.1
2015-Mar-04 15:31N 48°45' W 123°37'0 0.0
2015-Mar-04 14:31N 48°45' W 123°37'0 0.0
2015-Mar-04 13:28N 48°45' W 123°37'0 0.0
2015-Mar-04 12:31N 48°45' W 123°37'0 0.1
2015-Mar-04 11:28N 48°45' W 123°37'0 0.0
2015-Mar-04 10:28N 48°45' W 123°37'0 0.0
2015-Mar-04 09:22N 48°45' W 123°37'0 0.1
2015-Mar-04 08:22N 48°45' W 123°37'0 0.0
2015-Mar-04 07:10N 48°45' W 123°37'0 0.1
2015-Mar-04 06:22N 48°45' W 123°37'0 0.0
2015-Mar-04 05:04N 48°45' W 123°37'0 0.0
2015-Mar-04 03:28N 48°45' W 123°37'0 0.1
2015-Mar-04 02:04N 48°45' W 123°37'0 0.1
2015-Mar-04 00:28N 48°45' W 123°37'0 0.0
2015-Mar-03 23:16N 48°45' W 123°37'0 0.0
2015-Mar-03 22:28N 48°45' W 123°37'0 0.0
2015-Mar-03 21:22N 48°45' W 123°37'0 0.1
2015-Mar-03 20:22N 48°45' W 123°37'0 0.2
2015-Mar-03 19:16N 48°45' W 123°37'0 0.1
2015-Mar-03 18:22N 48°45' W 123°37'0 0.1
2015-Mar-03 17:34N 48°45' W 123°37'0 0.0
2015-Mar-03 16:09N 48°45' W 123°37'0 0.0
2015-Mar-03 15:03N 48°45' W 123°37'0 0.0
2015-Mar-03 14:21N 48°45' W 123°37'0 0.0
2015-Mar-03 13:09N 48°45' W 123°37'0 0.0
2015-Mar-03 12:27N 48°45' W 123°37'0 0.0
2015-Mar-03 10:33N 48°45' W 123°37'0 0.0
2015-Mar-03 09:33N 48°45' W 123°37'0 0.0
2015-Mar-03 08:33N 48°45' W 123°37'0 0.0
2015-Mar-03 07:15N 48°45' W 123°37'0 0.0
2015-Mar-03 06:33N 48°45' W 123°37'0 0.1
2015-Mar-03 05:33N 48°45' W 123°37'0 0.0
2015-Mar-03 04:30N 48°45' W 123°37'0 0.1
2015-Mar-03 03:33N 48°45' W 123°37'0 0.1
2015-Mar-03 02:33N 48°45' W 123°37'0 0.1
2015-Mar-03 01:33N 48°45' W 123°37'0 0.0
2015-Mar-03 00:30N 48°45' W 123°37'0 0.0
2015-Mar-02 23:15N 48°45' W 123°37'0 0.1
2015-Mar-02 22:21N 48°45' W 123°37'0 0.1
2015-Mar-02 21:15N 48°45' W 123°37'0 0.1
2015-Mar-02 20:27N 48°45' W 123°37'0 0.1
2015-Mar-02 18:33N 48°45' W 123°37'0 0.2
2015-Mar-02 17:33N 48°45' W 123°37'0 0.1
2015-Mar-02 16:21N 48°45' W 123°37'0 0.0
2015-Mar-02 15:33N 48°45' W 123°37'0 0.0
2015-Mar-02 12:27N 48°45' W 123°37'0 0.1
2015-Mar-02 11:33N 48°45' W 123°37'0 0.1
2015-Mar-02 10:21N 48°45' W 123°37'0 0.1
2015-Mar-02 09:33N 48°45' W 123°37'0 0.0
2015-Mar-02 08:15N 48°45' W 123°37'0 0.0
2015-Mar-02 06:33N 48°45' W 123°37'0 0.1
2015-Mar-02 05:32N 48°45' W 123°37'0 0.0
2015-Mar-02 04:14N 48°45' W 123°37'0 0.1
2015-Mar-02 03:32N 48°45' W 123°37'0 0.0
2015-Mar-02 01:20N 48°45' W 123°37'0 0.1
2015-Mar-01 23:08N 48°45' W 123°37'0 0.1
2015-Mar-01 22:32N 48°45' W 123°37'0 0.1
2015-Mar-01 21:20N 48°45' W 123°37'0 0.1
2015-Mar-01 20:26N 48°45' W 123°37'0 0.0
2015-Mar-01 18:08N 48°45' W 123°37'0 0.1
2015-Mar-01 17:20N 48°45' W 123°37'0 0.1
2015-Mar-01 16:26N 48°45' W 123°37'0 0.0
2015-Mar-01 14:32N 48°45' W 123°37'0 0.0
2015-Mar-01 13:32N 48°45' W 123°37'0 0.0
2015-Mar-01 12:14N 48°45' W 123°37'0 0.0
2015-Mar-01 10:14N 48°45' W 123°37'0 0.0
2015-Mar-01 09:26N 48°45' W 123°37'0 0.0
2015-Mar-01 07:32N 48°45' W 123°37'0 0.0
2015-Mar-01 06:20N 48°45' W 123°37'0 0.0
2015-Mar-01 05:32N 48°45' W 123°37'0 0.0
2015-Mar-01 02:32N 48°45' W 123°37'0 0.0
2015-Mar-01 01:08N 48°45' W 123°37'0 0.1
2015-Mar-01 00:08N 48°45' W 123°37'0 0.2
2015-Feb-28 23:32N 48°45' W 123°37'0 0.1
2015-Feb-28 21:20N 48°45' W 123°37'0 0.1
2015-Feb-28 19:26N 48°45' W 123°37'0 0.0
2015-Feb-28 18:26N 48°45' W 123°37'0 0.0
2015-Feb-28 16:25N 48°45' W 123°37'0 0.0
2015-Feb-28 15:31N 48°45' W 123°37'0 0.0
2015-Feb-28 14:07N 48°45' W 123°37'0 0.0
2015-Feb-28 13:25N 48°45' W 123°37'0 0.0
2015-Feb-28 12:13N 48°45' W 123°37'  
Track history (hours):
 
Tides and Currents Weather Stations Pressure Air Temp Water Temp Dewpoint Dewpoint Depression Visibility Wind Speed Wind Dir Waves Ship Positions

MV Melite

Last reported at 2015-Mar-10 12:13 UTC. Time now 2015-Mar-31 11:24 UTC.
Position N 48°10' W 125°42'.
Warning: this ship's position is 20 days out of date.

Length 225 m; draft 14 m.

Type: Cargo ship. MMSI: 538003832.

Date/timePositionNaut miles runAvg speedWind from/ knotsBaromVisibWave heightAir tempDewpointWater temp
2015-Mar-10 12:13N 48°10' W 125°42'912.9
2015-Mar-10 11:33N 48°16' W 125°33'1312.7
2015-Mar-10 10:32N 48°25' W 125°19'1312.5
2015-Mar-10 09:32N 48°31' W 125°02'4113.8
2015-Mar-10 06:32N 48°18' W 124°02'1414.4
2015-Mar-10 05:32N 48°16' W 123°41'1010.6
2015-Mar-10 04:33N 48°20' W 123°26'9 8.6
2015-Mar-10 03:34N 48°24' W 123°15'1010.1
2015-Mar-10 02:33N 48°34' W 123°13'9 9.2
2015-Mar-10 01:34N 48°43' W 123°12'9 9.2
2015-Mar-10 00:33N 48°49' W 123°01'1110.8
2015-Mar-09 23:33N 48°59' W 123°09'2 2.2
2015-Mar-09 22:29N 49°01' W 123°09'0 0.0
2015-Mar-09 21:32N 49°01' W 123°09'0 0.0
2015-Mar-09 20:32N 49°01' W 123°09'0 0.0
2015-Mar-09 19:32N 49°01' W 123°09'0 0.0
2015-Mar-09 18:31N 49°01' W 123°09'0 0.0
2015-Mar-09 17:31N 49°01' W 123°09'0 0.0
2015-Mar-09 16:31N 49°01' W 123°09'0 0.0
2015-Mar-09 15:28N 49°01' W 123°09'0 0.0
2015-Mar-09 14:28N 49°01' W 123°09'0 0.0
2015-Mar-09 13:31N 49°01' W 123°09'0 0.0
2015-Mar-09 12:31N 49°01' W 123°09'0 0.0
2015-Mar-09 11:31N 49°01' W 123°09'0 0.0
2015-Mar-09 10:31N 49°01' W 123°09'0 0.0
2015-Mar-09 09:31N 49°01' W 123°09'0 0.0
2015-Mar-09 08:28N 49°01' W 123°09'0 0.0
2015-Mar-09 07:31N 49°01' W 123°09'0 0.0
2015-Mar-09 06:31N 49°01' W 123°09'0 0.0
2015-Mar-09 05:31N 49°01' W 123°09'0 0.0
2015-Mar-09 04:31N 49°01' W 123°09'0 0.0
2015-Mar-09 03:31N 49°01' W 123°09'0 0.0
2015-Mar-09 02:31N 49°01' W 123°09'0 0.0
2015-Mar-09 01:31N 49°01' W 123°09'0 0.0
2015-Mar-09 00:31N 49°01' W 123°09'0 0.0
2015-Mar-08 23:31N 49°01' W 123°09'0 0.0
2015-Mar-08 22:31N 49°01' W 123°09'0 0.0
2015-Mar-08 21:31N 49°01' W 123°09'0 0.0
2015-Mar-08 20:31N 49°01' W 123°09'0 0.0
2015-Mar-08 19:31N 49°01' W 123°09'0 0.0
2015-Mar-08 18:31N 49°01' W 123°09'0 0.0
2015-Mar-08 17:31N 49°01' W 123°09'0 0.0
2015-Mar-08 16:31N 49°01' W 123°09'0 0.0
2015-Mar-08 15:31N 49°01' W 123°09'0 0.0
2015-Mar-08 14:31N 49°01' W 123°09'0 0.0
2015-Mar-08 13:31N 49°01' W 123°09'0 0.0
2015-Mar-08 12:31N 49°01' W 123°09'0 0.0
2015-Mar-08 11:31N 49°01' W 123°09'0 0.0
2015-Mar-08 10:31N 49°01' W 123°09'0 0.0
2015-Mar-08 09:31N 49°01' W 123°09'0 0.0
2015-Mar-08 08:31N 49°01' W 123°09'0 0.0
2015-Mar-08 07:34N 49°01' W 123°09'0 0.0
2015-Mar-08 06:33N 49°01' W 123°09'0 0.0
2015-Mar-08 05:30N 49°01' W 123°09'0 0.0
2015-Mar-08 04:30N 49°01' W 123°09'0 0.0
2015-Mar-08 03:33N 49°01' W 123°09'0 0.0
2015-Mar-08 02:33N 49°01' W 123°09'0 0.0
2015-Mar-08 01:33N 49°01' W 123°09'0 0.0
2015-Mar-08 00:33N 49°01' W 123°09'0 0.0
2015-Mar-07 23:33N 49°01' W 123°09'0 0.0
2015-Mar-07 22:33N 49°01' W 123°09'1 0.9
2015-Mar-07 21:33N 49°00' W 123°10'8 7.6
2015-Mar-07 20:33N 48°54' W 123°03'9 9.2
2015-Mar-07 19:33N 48°45' W 123°05'1111.2
2015-Mar-07 18:33N 48°45' W 123°21'10 9.6
2015-Mar-07 17:32N 48°45' W 123°36'0 0.1
2015-Mar-07 15:30N 48°45' W 123°37'0 0.0
2015-Mar-07 14:30N 48°45' W 123°37'0 0.0
2015-Mar-07 12:06N 48°45' W 123°37'0 0.0
2015-Mar-07 11:18N 48°45' W 123°37'0 0.1
2015-Mar-07 10:30N 48°45' W 123°37'0 0.1
2015-Mar-07 09:12N 48°45' W 123°37'0 0.0
2015-Mar-07 08:18N 48°45' W 123°37'0 0.1
2015-Mar-07 07:18N 48°45' W 123°37'0 0.0
2015-Mar-07 06:12N 48°45' W 123°37'0 0.0
2015-Mar-07 05:12N 48°45' W 123°37'0 0.0
2015-Mar-07 04:24N 48°45' W 123°37'0 0.1
2015-Mar-07 03:24N 48°45' W 123°37'0 0.1
2015-Mar-07 02:06N 48°45' W 123°37'0 0.1
2015-Mar-07 01:06N 48°45' W 123°37'0 0.1
2015-Mar-07 00:30N 48°45' W 123°37'0 0.0
2015-Mar-06 23:30N 48°45' W 123°37'0 0.1
2015-Mar-06 21:24N 48°45' W 123°37'0 0.1
2015-Mar-06 19:12N 48°45' W 123°37'0 0.0
2015-Mar-06 18:18N 48°45' W 123°37'0 0.0
2015-Mar-06 17:06N 48°45' W 123°37'0 0.1
2015-Mar-06 16:24N 48°45' W 123°37'0 0.1
2015-Mar-06 15:30N 48°45' W 123°37'0 0.0
2015-Mar-06 14:11N 48°45' W 123°37'0 0.1
2015-Mar-06 13:29N 48°45' W 123°37'0 0.0
2015-Mar-06 10:29N 48°45' W 123°37'0 0.1
2015-Mar-06 09:29N 48°45' W 123°37'0 0.0
2015-Mar-06 08:05N 48°45' W 123°37'0 0.1
2015-Mar-06 07:29N 48°45' W 123°37'0 0.1
2015-Mar-06 06:20N 48°45' W 123°37'0 0.1
2015-Mar-06 05:29N 48°45' W 123°37'0 0.0
2015-Mar-06 04:05N 48°45' W 123°37'0 0.0
2015-Mar-05 20:11N 48°45' W 123°37'0 0.2
2015-Mar-05 19:23N 48°45' W 123°37'0 0.1
2015-Mar-05 18:29N 48°45' W 123°37'0 0.1
2015-Mar-05 17:05N 48°45' W 123°37'0 0.0
2015-Mar-05 15:29N 48°45' W 123°37'0 0.0
2015-Mar-05 13:29N 48°45' W 123°37'0 0.1
2015-Mar-05 12:23N 48°45' W 123°37'0 0.0
2015-Mar-05 11:17N 48°45' W 123°37'0 0.1
2015-Mar-05 10:05N 48°45' W 123°37'0 0.0
2015-Mar-05 09:29N 48°45' W 123°37'0 0.0
2015-Mar-05 08:23N 48°45' W 123°37'0 0.0
2015-Mar-05 07:17N 48°45' W 123°37'0 0.1
2015-Mar-05 06:23N 48°45' W 123°37'0 0.0
2015-Mar-05 05:05N 48°45' W 123°37'0 0.0
2015-Mar-05 04:29N 48°45' W 123°37'0 0.1
2015-Mar-05 02:16N 48°45' W 123°37'0 0.1
2015-Mar-05 00:22N 48°45' W 123°37'0 0.0
2015-Mar-04 23:28N 48°45' W 123°37'0 0.0
2015-Mar-04 22:22N 48°45' W 123°37'0 0.0
2015-Mar-04 21:16N 48°45' W 123°37'0 0.1
2015-Mar-04 19:28N 48°45' W 123°37'0 0.0
2015-Mar-04 18:28N 48°45' W 123°37'0 0.0
2015-Mar-04 17:28N 48°45' W 123°37'0 0.1
2015-Mar-04 16:28N 48°45' W 123°37'0 0.1
2015-Mar-04 15:31N 48°45' W 123°37'0 0.0
2015-Mar-04 14:31N 48°45' W 123°37'0 0.0
2015-Mar-04 13:28N 48°45' W 123°37'0 0.0
2015-Mar-04 12:31N 48°45' W 123°37'0 0.1
2015-Mar-04 11:28N 48°45' W 123°37'0 0.0
2015-Mar-04 10:28N 48°45' W 123°37'0 0.0
2015-Mar-04 09:22N 48°45' W 123°37'0 0.1
2015-Mar-04 08:22N 48°45' W 123°37'0 0.0
2015-Mar-04 07:10N 48°45' W 123°37'0 0.1
2015-Mar-04 06:22N 48°45' W 123°37'0 0.0
2015-Mar-04 05:04N 48°45' W 123°37'0 0.0
2015-Mar-04 03:28N 48°45' W 123°37'0 0.1
2015-Mar-04 02:04N 48°45' W 123°37'0 0.1
2015-Mar-04 00:28N 48°45' W 123°37'0 0.0
2015-Mar-03 23:16N 48°45' W 123°37'0 0.0
2015-Mar-03 22:28N 48°45' W 123°37'0 0.0
2015-Mar-03 21:22N 48°45' W 123°37'0 0.1
2015-Mar-03 20:22N 48°45' W 123°37'0 0.2
2015-Mar-03 19:16N 48°45' W 123°37'0 0.1
2015-Mar-03 18:22N 48°45' W 123°37'0 0.1
2015-Mar-03 17:34N 48°45' W 123°37'0 0.0
2015-Mar-03 16:09N 48°45' W 123°37'0 0.0
2015-Mar-03 15:03N 48°45' W 123°37'0 0.0
2015-Mar-03 14:21N 48°45' W 123°37'0 0.0
2015-Mar-03 13:09N 48°45' W 123°37'0 0.0
2015-Mar-03 12:27N 48°45' W 123°37'0 0.0
2015-Mar-03 10:33N 48°45' W 123°37'0 0.0
2015-Mar-03 09:33N 48°45' W 123°37'0 0.0
2015-Mar-03 08:33N 48°45' W 123°37'0 0.0
2015-Mar-03 07:15N 48°45' W 123°37'0 0.0
2015-Mar-03 06:33N 48°45' W 123°37'0 0.1
2015-Mar-03 05:33N 48°45' W 123°37'0 0.0
2015-Mar-03 04:30N 48°45' W 123°37'0 0.1
2015-Mar-03 03:33N 48°45' W 123°37'0 0.1
2015-Mar-03 02:33N 48°45' W 123°37'0 0.1
2015-Mar-03 01:33N 48°45' W 123°37'0 0.0
2015-Mar-03 00:30N 48°45' W 123°37'0 0.0
2015-Mar-02 23:15N 48°45' W 123°37'0 0.1
2015-Mar-02 22:21N 48°45' W 123°37'0 0.1
2015-Mar-02 21:15N 48°45' W 123°37'0 0.1
2015-Mar-02 20:27N 48°45' W 123°37'0 0.1
2015-Mar-02 18:33N 48°45' W 123°37'0 0.2
2015-Mar-02 17:33N 48°45' W 123°37'0 0.1
2015-Mar-02 16:21N 48°45' W 123°37'0 0.0
2015-Mar-02 15:33N 48°45' W 123°37'0 0.0
2015-Mar-02 12:27N 48°45' W 123°37'0 0.1
2015-Mar-02 11:33N 48°45' W 123°37'0 0.1
2015-Mar-02 10:21N 48°45' W 123°37'0 0.1
2015-Mar-02 09:33N 48°45' W 123°37'0 0.0
2015-Mar-02 08:15N 48°45' W 123°37'0 0.0
2015-Mar-02 06:33N 48°45' W 123°37'0 0.1
2015-Mar-02 05:32N 48°45' W 123°37'0 0.0
2015-Mar-02 04:14N 48°45' W 123°37'0 0.1
2015-Mar-02 03:32N 48°45' W 123°37'0 0.0
2015-Mar-02 01:20N 48°45' W 123°37'0 0.1
2015-Mar-01 23:08N 48°45' W 123°37'0 0.1
2015-Mar-01 22:32N 48°45' W 123°37'0 0.1
2015-Mar-01 21:20N 48°45' W 123°37'0 0.1
2015-Mar-01 20:26N 48°45' W 123°37'0 0.0
2015-Mar-01 18:08N 48°45' W 123°37'0 0.1
2015-Mar-01 17:20N 48°45' W 123°37'0 0.1
2015-Mar-01 16:26N 48°45' W 123°37'0 0.0
2015-Mar-01 14:32N 48°45' W 123°37'0 0.0
2015-Mar-01 13:32N 48°45' W 123°37'0 0.0
2015-Mar-01 12:14N 48°45' W 123°37'0 0.0
2015-Mar-01 10:14N 48°45' W 123°37'0 0.0
2015-Mar-01 09:26N 48°45' W 123°37'0 0.0
2015-Mar-01 07:32N 48°45' W 123°37'0 0.0
2015-Mar-01 06:20N 48°45' W 123°37'0 0.0
2015-Mar-01 05:32N 48°45' W 123°37'0 0.0
2015-Mar-01 02:32N 48°45' W 123°37'0 0.0
2015-Mar-01 01:08N 48°45' W 123°37'0 0.1
2015-Mar-01 00:08N 48°45' W 123°37'0 0.2
2015-Feb-28 23:32N 48°45' W 123°37'0 0.1
2015-Feb-28 21:20N 48°45' W 123°37'0 0.1
2015-Feb-28 19:26N 48°45' W 123°37'0 0.0
2015-Feb-28 18:26N 48°45' W 123°37'0 0.0
2015-Feb-28 16:25N 48°45' W 123°37'0 0.0
2015-Feb-28 15:31N 48°45' W 123°37'0 0.0
2015-Feb-28 14:07N 48°45' W 123°37'0 0.0
2015-Feb-28 13:25N 48°45' W 123°37'0 0.0
2015-Feb-28 12:13N 48°45' W 123°37'  

Dump ship's entire track history